Daffan, Texas
Current Conditions -  °F | °C
As of 3:35 PM on Saturday 25 Oct 2014 (Local Time) from KEDC Reporting Station
Clear Clear  
Wind Chill: 86°   Ceiling: Unl
Heat Index: 86°   Visibility: 10mi
Dew Point: 59°   Wind: 5mph
Humidity: 40%   Direction: 140°SE
Pressure: 30.1"   Gusts: NA
Location:  30.352°N, 97.5205°W
Report Text: KEDC 252035Z AUTO 14004KT 10SM CLR 30/15 A3010 RMK AO2
Loading
Personal Weather Stations






























Interactive Weather Map
Tropical Storm Tracking
New forecast layout! Learn more

10-Day Weather Forecast

Advertisements
Track Severe Weather on mobile